createdAt,value
2022-09-22T00:01:32.428Z,1.77
2022-09-22T00:04:04.385Z,2.20
2022-09-22T00:06:37.267Z,3.60
2022-09-22T00:09:07.197Z,1.50
2022-09-22T00:11:40.377Z,1.73
2022-09-22T00:14:13.810Z,2.57
2022-09-22T00:16:48.686Z,1.60
2022-09-22T00:19:22.990Z,2.60
2022-09-22T00:21:51.444Z,1.70
2022-09-22T00:24:22.688Z,2.17
2022-09-22T00:26:51.568Z,3.63
2022-09-22T00:29:19.126Z,3.23
2022-09-22T00:31:46.678Z,3.00
2022-09-22T00:34:18.900Z,2.97
2022-09-22T00:36:47.083Z,2.40
2022-09-22T00:39:16.683Z,2.10
2022-09-22T00:41:47.594Z,2.43
2022-09-22T00:44:34.810Z,2.23
2022-09-22T00:47:30.309Z,3.00
2022-09-22T00:50:07.222Z,2.93
2022-09-22T00:52:58.848Z,2.17
2022-09-22T00:55:28.936Z,2.27
2022-09-22T00:57:57.781Z,3.70
2022-09-22T01:00:25.342Z,2.13
2022-09-22T01:02:59.503Z,2.77
2022-09-22T01:05:30.151Z,1.77
2022-09-22T01:07:58.009Z,1.70
2022-09-22T01:10:26.414Z,2.00
2022-09-22T01:13:22.414Z,2.73
2022-09-22T01:16:45.895Z,4.33
2022-09-22T01:19:40.361Z,1.57
2022-09-22T01:22:22.662Z,2.73
2022-09-22T01:25:50.456Z,2.30
2022-09-22T01:29:08.270Z,2.27
2022-09-22T01:32:23.132Z,3.73
2022-09-22T01:35:27.915Z,2.83
2022-09-22T01:38:10.074Z,2.00
2022-09-22T01:40:57.808Z,1.73
2022-09-22T01:43:34.465Z,1.83
2022-09-22T01:46:10.581Z,2.00
2022-09-22T01:48:44.942Z,1.73
2022-09-22T01:51:24.688Z,2.17
2022-09-22T01:54:18.656Z,2.20
2022-09-22T01:56:53.397Z,3.93
2022-09-22T01:59:27.926Z,2.27
2022-09-22T02:02:03.531Z,3.13
2022-09-22T02:04:47.817Z,3.47
2022-09-22T02:07:41.513Z,1.80
2022-09-22T02:10:13.819Z,2.73
2022-09-22T02:12:41.513Z,5.00
2022-09-22T02:15:30.130Z,2.10
2022-09-22T02:18:06.381Z,7.27
2022-09-22T02:20:35.129Z,1.47
2022-09-22T02:23:03.068Z,3.47
2022-09-22T02:25:30.966Z,3.33
2022-09-22T02:27:59.372Z,5.80
2022-09-22T02:30:27.932Z,2.90
2022-09-22T02:32:58.093Z,3.07
2022-09-22T02:35:30.995Z,2.83
2022-09-22T02:38:28.855Z,3.17
2022-09-22T02:41:29.868Z,3.40
2022-09-22T02:44:15.301Z,4.70
2022-09-22T02:46:58.415Z,3.63
2022-09-22T02:49:27.750Z,2.90
2022-09-22T02:51:55.495Z,2.80
2022-09-22T02:54:25.769Z,4.07
2022-09-22T02:56:53.475Z,3.10
2022-09-22T02:59:21.206Z,6.13
2022-09-22T03:01:49.910Z,3.37
2022-09-22T03:04:17.482Z,3.97
2022-09-22T03:06:45.045Z,3.20
2022-09-22T03:09:12.551Z,3.60
2022-09-22T03:11:39.983Z,4.10
2022-09-22T03:14:07.424Z,2.90
2022-09-22T03:16:35.191Z,3.60
2022-09-22T03:19:02.604Z,3.10
2022-09-22T03:21:30.111Z,2.47
2022-09-22T03:23:57.584Z,3.57
2022-09-22T03:26:25.059Z,7.00
2022-09-22T03:28:53.423Z,4.90
2022-09-22T03:31:20.964Z,3.10
2022-09-22T03:33:52.586Z,3.20
2022-09-22T03:36:20.936Z,2.47
2022-09-22T03:38:48.696Z,2.20
2022-09-22T03:41:16.132Z,2.40
2022-09-22T03:43:43.590Z,2.40
2022-09-22T03:46:11.071Z,2.60
2022-09-22T03:48:42.872Z,2.70
2022-09-22T03:51:12.418Z,2.40
2022-09-22T03:53:39.883Z,2.50
2022-09-22T03:56:14.331Z,2.57
2022-09-22T03:58:42.325Z,3.10
2022-09-22T04:01:11.408Z,2.30
2022-09-22T04:03:41.062Z,2.93
2022-09-22T04:06:09.131Z,2.73
2022-09-22T04:08:36.752Z,2.53
2022-09-22T04:11:05.606Z,4.97
2022-09-22T04:13:33.115Z,2.30
2022-09-22T04:16:00.597Z,2.33
2022-09-22T04:18:28.552Z,4.63
2022-09-22T04:20:59.776Z,5.57
2022-09-22T04:23:27.789Z,5.97
2022-09-22T04:25:55.276Z,2.90
2022-09-22T04:28:23.024Z,6.50
2022-09-22T04:30:50.895Z,2.67
2022-09-22T04:33:18.393Z,3.40
2022-09-22T04:35:45.901Z,8.40
2022-09-22T04:38:14.581Z,6.97
2022-09-22T04:40:42.386Z,4.03
2022-09-22T04:43:09.941Z,5.83
2022-09-22T04:45:39.764Z,4.90
2022-09-22T04:48:07.522Z,4.17
2022-09-22T04:50:35.041Z,4.70
2022-09-22T04:53:07.006Z,4.90
2022-09-22T04:55:35.133Z,4.77
2022-09-22T04:58:02.770Z,6.30
2022-09-22T05:00:30.700Z,5.23
2022-09-22T05:02:58.632Z,7.07
2022-09-22T05:05:26.177Z,4.90
2022-09-22T05:07:54.870Z,5.17
2022-09-22T05:10:25.433Z,5.00
2022-09-22T05:12:53.704Z,6.30
2022-09-22T05:15:22.772Z,5.70
2022-09-22T05:17:55.273Z,5.83
2022-09-22T05:20:23.191Z,5.27
2022-09-22T05:22:50.619Z,7.13
2022-09-22T05:25:20.210Z,5.20
2022-09-22T05:27:50.667Z,4.83
2022-09-22T05:30:19.513Z,5.37
2022-09-22T05:32:49.298Z,4.90
2022-09-22T05:35:23.864Z,5.10
2022-09-22T05:37:53.431Z,9.03
2022-09-22T05:40:24.132Z,4.73
2022-09-22T05:42:55.630Z,5.10
2022-09-22T05:45:23.440Z,4.23
2022-09-22T05:47:51.364Z,7.53
2022-09-22T05:50:20.958Z,4.90
2022-09-22T05:52:48.560Z,4.40
2022-09-22T05:55:16.491Z,4.60
2022-09-22T05:57:44.036Z,4.00
2022-09-22T06:00:12.807Z,3.63
2022-09-22T06:02:43.124Z,4.23
2022-09-22T06:05:10.637Z,3.33
2022-09-22T06:07:38.067Z,4.33
2022-09-22T06:10:06.506Z,3.20
2022-09-22T06:12:33.997Z,3.37
2022-09-22T06:15:01.423Z,3.20
2022-09-22T06:17:28.996Z,3.90
2022-09-22T06:19:56.506Z,3.23
2022-09-22T06:22:24.347Z,5.03
2022-09-22T06:24:51.824Z,3.57
2022-09-22T06:27:19.378Z,3.20
2022-09-22T06:29:46.787Z,3.70
2022-09-22T06:32:14.259Z,3.40
2022-09-22T06:34:44.772Z,3.60
2022-09-22T06:37:12.536Z,3.83
2022-09-22T06:39:39.975Z,4.47
2022-09-22T06:42:07.760Z,3.70
2022-09-22T06:44:36.148Z,2.67
2022-09-22T06:47:10.613Z,3.27
2022-09-22T06:49:38.268Z,5.23
2022-09-22T06:52:06.952Z,3.80
2022-09-22T06:54:34.406Z,3.13
2022-09-22T06:57:01.825Z,5.00
2022-09-22T06:59:29.520Z,6.47
2022-09-22T07:01:57.758Z,2.50
2022-09-22T07:04:25.370Z,4.40
2022-09-22T07:06:52.799Z,5.60
2022-09-22T07:09:21.246Z,2.40
2022-09-22T07:11:49.183Z,2.87
2022-09-22T07:14:16.740Z,3.50
2022-09-22T07:16:44.424Z,3.53
2022-09-22T07:19:12.051Z,3.37
2022-09-22T07:21:40.406Z,2.40
2022-09-22T07:24:08.787Z,5.20
2022-09-22T07:26:40.992Z,2.37
2022-09-22T07:29:13.772Z,4.43
2022-09-22T07:31:44.397Z,2.50
2022-09-22T07:34:12.827Z,2.27
2022-09-22T07:36:40.965Z,2.43
2022-09-22T07:39:12.974Z,1.60
2022-09-22T07:41:43.931Z,4.93
2022-09-22T07:44:33.386Z,7.67
2022-09-22T07:47:02.330Z,1.90
2022-09-22T07:49:30.746Z,2.30
2022-09-22T07:51:58.839Z,4.00
2022-09-22T07:54:27.703Z,5.07
2022-09-22T07:56:58.736Z,4.87
2022-09-22T07:59:27.642Z,2.67
2022-09-22T08:01:55.692Z,4.33
2022-09-22T08:04:24.077Z,2.13
2022-09-22T08:06:55.600Z,6.53
2022-09-22T08:09:25.377Z,4.67
2022-09-22T08:11:53.564Z,5.23
2022-09-22T08:14:23.639Z,1.60
2022-09-22T08:16:53.471Z,3.47
2022-09-22T08:19:23.902Z,1.90
2022-09-22T08:21:54.236Z,3.00
2022-09-22T08:24:23.123Z,5.80
2022-09-22T08:26:54.809Z,1.37
2022-09-22T08:29:24.429Z,1.37
2022-09-22T08:31:52.132Z,1.50
2022-09-22T08:34:20.382Z,1.63
2022-09-22T08:36:48.550Z,1.30
2022-09-22T08:39:18.065Z,20.87
2022-09-22T08:41:47.585Z,2.97
2022-09-22T08:44:23.046Z,2.70
2022-09-22T08:46:50.832Z,1.57
2022-09-22T08:50:05.361Z,1.67
2022-09-22T08:52:53.333Z,4.73
2022-09-22T08:55:25.574Z,1.33
2022-09-22T08:58:16.564Z,2.00
2022-09-22T09:00:56.993Z,20.23
2022-09-22T09:04:22.463Z,3.70
2022-09-22T09:06:55.770Z,3.27
2022-09-22T09:09:50.870Z,7.80
2022-09-22T09:13:11.885Z,7.47
2022-09-22T09:16:04.393Z,1.43
2022-09-22T09:18:38.078Z,14.70
2022-09-22T09:21:13.920Z,1.43
2022-09-22T09:26:46.765Z,1.23
2022-09-22T09:29:22.665Z,2.63
2022-09-22T09:31:54.893Z,1.20
2022-09-22T09:34:29.047Z,1.03
2022-09-22T09:37:07.819Z,2.37
2022-09-22T09:39:40.663Z,2.47
2022-09-22T09:42:25.350Z,0.97
2022-09-22T09:44:55.123Z,2.90
2022-09-22T09:47:59.653Z,18.63
2022-09-22T09:50:32.601Z,4.63
2022-09-22T09:53:01.393Z,1.23
2022-09-22T09:55:29.566Z,2.10
2022-09-22T09:58:36.303Z,2.60
2022-09-22T10:01:04.459Z,5.80
2022-09-22T10:03:41.190Z,1.60
2022-09-22T10:06:11.034Z,1.57
2022-09-22T10:08:49.335Z,1.07
2022-09-22T10:11:17.110Z,0.83
2022-09-22T10:13:45.019Z,2.60
2022-09-22T10:16:25.732Z,0.60
2022-09-22T10:19:30.303Z,0.80
2022-09-22T10:22:29.423Z,0.60
2022-09-22T10:25:05.227Z,0.70
2022-09-22T10:27:33.101Z,0.70
2022-09-22T10:30:22.116Z,2.63
2022-09-22T10:33:14.430Z,2.53
2022-09-22T10:36:06.512Z,5.77
2022-09-22T10:38:40.656Z,1.90
2022-09-22T10:41:30.822Z,1.50
2022-09-22T10:44:39.330Z,0.90
2022-09-22T10:47:27.543Z,2.07
2022-09-22T10:50:21.969Z,3.20
2022-09-22T10:52:52.125Z,2.77
2022-09-22T10:56:08.362Z,2.87
2022-09-22T10:59:21.382Z,4.57
2022-09-22T11:02:55.362Z,2.27
2022-09-22T11:05:56.238Z,0.80
2022-09-22T11:08:42.708Z,0.60
2022-09-22T11:11:51.526Z,9.83
2022-09-22T11:15:21.560Z,1.07
2022-09-22T11:18:13.407Z,0.70
2022-09-22T11:24:15.240Z,2.00
2022-09-22T11:26:57.250Z,0.87
2022-09-22T11:29:52.780Z,0.90
2022-09-22T11:33:05.835Z,1.70
2022-09-22T11:36:03.425Z,0.90
2022-09-22T11:38:53.950Z,0.70
2022-09-22T11:41:44.224Z,7.60
2022-09-22T11:44:52.362Z,1.60
2022-09-22T11:47:32.857Z,0.80
2022-09-22T11:50:16.362Z,0.70
2022-09-22T11:53:02.743Z,3.27
2022-09-22T11:56:06.941Z,4.93
2022-09-22T11:58:42.323Z,0.60
2022-09-22T12:01:22.359Z,1.07
2022-09-22T12:04:36.496Z,1.23
2022-09-22T12:07:14.561Z,0.40
2022-09-22T12:09:50.933Z,1.27
2022-09-22T12:12:22.204Z,3.90
2022-09-22T12:15:07.626Z,57.37
2022-09-22T12:17:52.732Z,24.43
2022-09-22T12:20:44.428Z,2.60
2022-09-22T12:23:38.848Z,2.47
2022-09-22T12:26:12.518Z,193.30
2022-09-22T12:28:45.508Z,49.57
2022-09-22T12:31:16.490Z,80.45
2022-09-22T12:33:55.587Z,17.40
2022-09-22T12:36:37.204Z,65.23
2022-09-22T12:39:20.257Z,6.63
2022-09-22T12:42:07.183Z,2.57
2022-09-22T12:44:48.810Z,5.53
2022-09-22T12:47:39.715Z,79.80
2022-09-22T12:50:25.227Z,8.53
2022-09-22T12:52:52.736Z,6.93
2022-09-22T12:55:40.831Z,31.23
2022-09-22T12:58:24.082Z,5.43
2022-09-22T13:00:57.118Z,3.67
2022-09-22T13:03:30.199Z,0.80
2022-09-22T13:06:24.292Z,3.93
2022-09-22T13:08:55.484Z,2.40
2022-09-22T13:12:12.572Z,6.67
2022-09-22T13:15:15.739Z,2.97
2022-09-22T13:17:51.235Z,5.55
2022-09-22T13:20:33.261Z,6.55
2022-09-22T13:23:14.163Z,3.63
2022-09-22T13:25:42.631Z,7.43
2022-09-22T13:28:09.963Z,2.10
2022-09-22T13:30:39.624Z,1.60
2022-09-22T13:33:19.262Z,1.57
2022-09-22T13:36:02.774Z,1.83
2022-09-22T13:38:38.792Z,2.83
2022-09-22T13:41:19.079Z,3.93
2022-09-22T13:43:54.655Z,5.13
2022-09-22T13:46:42.505Z,1.43
2022-09-22T13:49:17.214Z,3.57
2022-09-22T13:51:55.799Z,4.67
2022-09-22T13:54:27.601Z,4.30
2022-09-22T13:56:57.527Z,4.10
2022-09-22T13:59:28.744Z,0.90
2022-09-22T14:01:56.306Z,2.60
2022-09-22T14:04:27.795Z,2.15
2022-09-22T14:07:06.225Z,5.32
2022-09-22T14:09:38.842Z,5.82
2022-09-22T14:12:10.199Z,3.13
2022-09-22T14:14:40.210Z,0.57
2022-09-22T14:17:23.332Z,5.38
2022-09-22T14:19:57.814Z,2.28
2022-09-22T14:22:28.896Z,4.10
2022-09-22T14:24:59.494Z,0.52
2022-09-22T14:27:34.311Z,3.25
2022-09-22T14:30:02.327Z,6.18
2022-09-22T14:32:39.795Z,15.70
2022-09-22T14:35:32.284Z,1.00
2022-09-22T14:38:11.019Z,6.32
2022-09-22T14:41:03.140Z,4.28
2022-09-22T14:43:38.950Z,27.45
2022-09-22T14:46:33.790Z,7.50
2022-09-22T14:49:43.464Z,1.42
2022-09-22T14:52:34.819Z,13.18
2022-09-22T14:55:26.340Z,8.23
2022-09-22T14:57:53.932Z,7.05
2022-09-22T15:00:40.365Z,2.38
2022-09-22T15:03:23.801Z,1.67
2022-09-22T15:05:51.557Z,4.30
2022-09-22T15:08:27.864Z,1.77
2022-09-22T15:11:00.893Z,1.20
2022-09-22T15:13:39.313Z,1.85
2022-09-22T15:16:33.867Z,24.25
2022-09-22T15:19:01.639Z,2.30
2022-09-22T15:21:29.388Z,1.63
2022-09-22T15:24:04.467Z,2.25
2022-09-22T15:26:32.956Z,4.25
2022-09-22T15:29:21.771Z,4.90
2022-09-22T15:31:49.575Z,1.17
2022-09-22T15:34:17.275Z,0.93
2022-09-22T15:36:47.820Z,5.35
2022-09-22T15:39:24.800Z,16.40
2022-09-22T15:41:53.699Z,26.63
2022-09-22T15:44:21.350Z,15.50
2022-09-22T15:46:52.516Z,4.63
2022-09-22T15:49:26.378Z,15.23
2022-09-22T15:51:57.653Z,1.38
2022-09-22T15:54:26.770Z,5.88
2022-09-22T15:56:56.638Z,0.77
2022-09-22T15:59:32.346Z,2.08
2022-09-22T16:02:00.633Z,9.30
2022-09-22T16:04:33.832Z,11.65
2022-09-22T16:07:10.643Z,7.03
2022-09-22T16:09:38.684Z,10.83
2022-09-22T16:12:11.158Z,15.80
2022-09-22T16:14:41.067Z,173.63
2022-09-22T16:17:08.687Z,188.80
2022-09-22T16:19:37.664Z,139.73
2022-09-22T16:22:06.028Z,126.97
2022-09-22T16:24:33.631Z,129.93
2022-09-22T16:27:03.659Z,135.63
2022-09-22T16:29:31.212Z,135.33
2022-09-22T16:31:59.140Z,115.10
2022-09-22T16:34:27.119Z,61.50
2022-09-22T16:36:54.819Z,63.57
2022-09-22T16:39:22.288Z,56.40
2022-09-22T16:41:49.918Z,52.03
2022-09-22T16:44:17.387Z,57.07
2022-09-22T16:46:44.987Z,39.30
2022-09-22T16:49:16.308Z,38.33
2022-09-22T16:51:51.105Z,28.93
2022-09-22T16:54:19.860Z,19.70
2022-09-22T16:56:50.527Z,20.50
2022-09-22T16:59:21.615Z,27.03
2022-09-22T17:01:50.113Z,25.00
2022-09-22T17:04:19.625Z,30.17
2022-09-22T17:06:48.164Z,33.47
2022-09-22T17:09:19.137Z,35.87
2022-09-22T17:11:49.213Z,33.37
2022-09-22T17:14:23.151Z,38.63
2022-09-22T17:16:56.751Z,34.10
2022-09-22T17:19:27.975Z,37.53
2022-09-22T17:21:57.225Z,28.57
2022-09-22T17:24:26.977Z,27.20
2022-09-22T17:26:57.650Z,25.57
2022-09-22T17:29:32.917Z,30.47
2022-09-22T17:32:08.443Z,26.67
2022-09-22T17:34:38.275Z,20.77
2022-09-22T17:37:05.916Z,9.27
2022-09-22T17:39:35.324Z,13.63
2022-09-22T17:42:02.864Z,8.53
2022-09-22T17:44:37.787Z,5.90
2022-09-22T17:47:26.384Z,6.87
2022-09-22T17:50:13.876Z,2.90
2022-09-22T17:53:01.567Z,4.87
2022-09-22T17:55:30.362Z,8.13
2022-09-22T17:58:01.939Z,4.13
2022-09-22T18:00:33.621Z,8.93
2022-09-22T18:03:06.196Z,4.20
2022-09-22T18:05:40.786Z,4.67
2022-09-22T18:08:10.925Z,5.60
2022-09-22T18:10:38.944Z,4.07
2022-09-22T18:13:08.010Z,6.27
2022-09-22T18:15:36.942Z,8.77
2022-09-22T18:18:06.176Z,6.40
2022-09-22T18:20:39.730Z,4.77
2022-09-22T18:23:07.351Z,3.07
2022-09-22T18:25:35.410Z,3.20
2022-09-22T18:28:04.088Z,3.77
2022-09-22T18:30:35.493Z,2.80
2022-09-22T18:33:05.526Z,2.20
2022-09-22T18:35:34.099Z,1.83
2022-09-22T18:38:03.483Z,2.07
2022-09-22T18:40:33.660Z,1.73
2022-09-22T18:43:02.844Z,4.47
2022-09-22T18:45:37.579Z,2.10
2022-09-22T18:48:07.403Z,3.10
2022-09-22T18:50:41.477Z,2.40
2022-09-22T18:53:11.114Z,1.63
2022-09-22T18:55:39.088Z,1.57
2022-09-22T18:58:26.704Z,1.50
2022-09-22T19:01:00.732Z,1.73
2022-09-22T19:03:33.684Z,3.93
2022-09-22T19:06:05.196Z,2.47
2022-09-22T19:08:34.154Z,3.37
2022-09-22T19:11:03.279Z,4.37
2022-09-22T19:13:32.603Z,6.63
2022-09-22T19:16:22.773Z,3.77
2022-09-22T19:18:54.753Z,3.97
2022-09-22T19:21:25.103Z,3.83
2022-09-22T19:23:52.759Z,3.27
2022-09-22T19:26:23.484Z,4.53
2022-09-22T19:28:51.488Z,4.87
2022-09-22T19:31:19.180Z,4.23
2022-09-22T19:33:49.034Z,3.33
2022-09-22T19:36:16.722Z,3.37
2022-09-22T19:38:44.766Z,5.47
2022-09-22T19:41:13.940Z,2.77
2022-09-22T19:43:43.184Z,1.90
2022-09-22T19:46:11.300Z,7.10
2022-09-22T19:48:39.764Z,3.47
2022-09-22T19:51:11.013Z,2.13
2022-09-22T19:53:40.071Z,1.90
2022-09-22T19:56:09.244Z,1.27
2022-09-22T19:58:36.827Z,1.80
2022-09-22T20:01:09.347Z,3.60
2022-09-22T20:03:38.805Z,2.93
2022-09-22T20:06:06.767Z,1.87
2022-09-22T20:08:36.044Z,3.53
2022-09-22T20:11:25.500Z,1.80
2022-09-22T20:14:17.819Z,5.30
2022-09-22T20:16:46.776Z,2.30
2022-09-22T20:19:14.805Z,1.80
2022-09-22T20:21:45.987Z,3.13
2022-09-22T20:24:17.590Z,4.17
2022-09-22T20:26:47.632Z,2.23
2022-09-22T20:29:17.070Z,4.63
2022-09-22T20:31:44.995Z,9.63
2022-09-22T20:34:15.853Z,10.70
2022-09-22T20:36:43.561Z,6.67
2022-09-22T20:39:15.297Z,7.47
2022-09-22T20:41:44.271Z,2.90
2022-09-22T20:44:16.328Z,3.27
2022-09-22T20:46:44.010Z,1.90
2022-09-22T20:49:16.674Z,3.07
2022-09-22T20:51:47.489Z,3.97
2022-09-22T20:54:15.900Z,4.33
2022-09-22T20:56:44.263Z,3.27
2022-09-22T20:59:11.732Z,2.60
2022-09-22T21:01:39.228Z,5.33
2022-09-22T21:04:07.011Z,7.03
2022-09-22T21:06:34.660Z,9.67
2022-09-22T21:09:20.505Z,6.10
2022-09-22T21:11:48.000Z,5.83
2022-09-22T21:14:15.905Z,7.17
2022-09-22T21:16:43.566Z,7.93
2022-09-22T21:19:12.716Z,10.37
2022-09-22T21:21:40.508Z,8.50
2022-09-22T21:24:11.164Z,7.80
2022-09-22T21:26:38.822Z,7.67
2022-09-22T21:29:06.349Z,7.97
2022-09-22T21:31:34.859Z,8.30
2022-09-22T21:34:02.524Z,5.50
2022-09-22T21:36:29.999Z,6.47
2022-09-22T21:38:59.961Z,7.23
2022-09-22T21:41:31.214Z,6.00
2022-09-22T21:44:00.028Z,7.37
2022-09-22T21:46:30.414Z,6.00
2022-09-22T21:49:03.087Z,6.80
2022-09-22T21:51:34.754Z,5.17
2022-09-22T21:54:04.729Z,5.17
2022-09-22T21:56:33.924Z,11.37
2022-09-22T21:59:03.417Z,6.83
2022-09-22T22:01:37.792Z,7.13
2022-09-22T22:04:08.362Z,8.40
2022-09-22T22:06:43.151Z,6.57
2022-09-22T22:09:22.452Z,6.07
2022-09-22T22:11:59.793Z,9.80
2022-09-22T22:14:32.949Z,7.40
2022-09-22T22:17:02.300Z,7.77
2022-09-22T22:19:30.028Z,5.63
2022-09-22T22:21:58.540Z,5.90
2022-09-22T22:24:31.787Z,6.53
2022-09-22T22:27:06.353Z,6.70
2022-09-22T22:29:35.140Z,6.63
2022-09-22T22:32:08.140Z,9.03
2022-09-22T22:34:35.674Z,6.03
2022-09-22T22:37:04.751Z,9.07
2022-09-22T22:39:32.595Z,7.33
2022-09-22T22:42:00.105Z,9.97
2022-09-22T22:44:27.806Z,8.43
2022-09-22T22:46:55.335Z,5.83
2022-09-22T22:49:22.755Z,7.70
2022-09-22T22:51:52.324Z,7.67
2022-09-22T22:54:19.944Z,7.63
2022-09-22T22:56:50.939Z,6.87
2022-09-22T22:59:19.315Z,6.87
2022-09-22T23:01:46.905Z,10.37
2022-09-22T23:04:16.669Z,8.57
2022-09-22T23:06:44.578Z,8.20
2022-09-22T23:09:15.864Z,8.63
2022-09-22T23:11:46.332Z,6.63
2022-09-22T23:14:15.991Z,5.73
2022-09-22T23:16:49.599Z,4.77
2022-09-22T23:19:18.898Z,4.43
2022-09-22T23:21:47.513Z,5.23
2022-09-22T23:24:18.892Z,3.80
2022-09-22T23:26:47.566Z,3.50
2022-09-22T23:29:15.197Z,4.23
2022-09-22T23:31:43.248Z,5.83
2022-09-22T23:34:10.744Z,4.83
2022-09-22T23:36:39.615Z,5.00
2022-09-22T23:39:07.248Z,4.30
2022-09-22T23:41:36.862Z,4.47
2022-09-22T23:44:08.502Z,5.70
2022-09-22T23:46:38.327Z,4.10
2022-09-22T23:49:06.859Z,4.53
2022-09-22T23:51:34.307Z,3.87
2022-09-22T23:54:01.931Z,3.77
2022-09-22T23:56:29.604Z,5.27
2022-09-22T23:58:57.326Z,5.97
